sensor_id;sensor_type;location;lat;lon;timestamp;pressure;altitude;pressure_sealevel;temperature;humidity
54262;BME280;40174;52.364;6.452;2023-01-04T00:00:28;101617.59;;;6.44;100.00
54262;BME280;40174;52.364;6.452;2023-01-04T00:02:55;101610.81;;;6.40;100.00
54262;BME280;40174;52.364;6.452;2023-01-04T00:05:21;101605.09;;;6.50;100.00
54262;BME280;40174;52.364;6.452;2023-01-04T00:07:48;101605.78;;;6.53;100.00
54262;BME280;40174;52.364;6.452;2023-01-04T00:10:16;101602.31;;;6.53;100.00
54262;BME280;40174;52.364;6.452;2023-01-04T00:12:43;101598.50;;;6.58;100.00
54262;BME280;40174;52.364;6.452;2023-01-04T00:15:10;101588.19;;;6.55;100.00
54262;BME280;40174;52.364;6.452;2023-01-04T00:17:36;101575.03;;;6.55;100.00
54262;BME280;40174;52.364;6.452;2023-01-04T00:20:03;101570.81;;;6.53;100.00
54262;BME280;40174;52.364;6.452;2023-01-04T00:22:32;101566.31;;;6.55;100.00
54262;BME280;40174;52.364;6.452;2023-01-04T00:24:59;101555.66;;;6.58;100.00
54262;BME280;40174;52.364;6.452;2023-01-04T00:27:26;101562.50;;;6.60;100.00
54262;BME280;40174;52.364;6.452;2023-01-04T00:29:53;101552.00;;;6.60;100.00
54262;BME280;40174;52.364;6.452;2023-01-04T00:32:20;101552.94;;;6.59;100.00
54262;BME280;40174;52.364;6.452;2023-01-04T00:34:46;101545.22;;;6.56;100.00
54262;BME280;40174;52.364;6.452;2023-01-04T00:37:13;101542.28;;;6.62;100.00
54262;BME280;40174;52.364;6.452;2023-01-04T00:39:40;101532.00;;;6.58;100.00
54262;BME280;40174;52.364;6.452;2023-01-04T00:42:06;101524.06;;;6.59;100.00
54262;BME280;40174;52.364;6.452;2023-01-04T00:44:34;101514.53;;;6.57;100.00
54262;BME280;40174;52.364;6.452;2023-01-04T00:47:02;101518.81;;;6.59;100.00
54262;BME280;40174;52.364;6.452;2023-01-04T00:49:29;101508.28;;;6.59;100.00
54262;BME280;40174;52.364;6.452;2023-01-04T00:51:57;101498.94;;;6.54;100.00
54262;BME280;40174;52.364;6.452;2023-01-04T00:54:24;101488.44;;;6.54;100.00
54262;BME280;40174;52.364;6.452;2023-01-04T00:56:51;101489.91;;;6.59;100.00
54262;BME280;40174;52.364;6.452;2023-01-04T00:59:18;101484.66;;;6.59;100.00
54262;BME280;40174;52.364;6.452;2023-01-04T01:01:47;101476.00;;;6.57;100.00
54262;BME280;40174;52.364;6.452;2023-01-04T01:04:16;101469.56;;;6.63;100.00
54262;BME280;40174;52.364;6.452;2023-01-04T01:06:43;101466.16;;;6.61;100.00
54262;BME280;40174;52.364;6.452;2023-01-04T01:09:10;101452.00;;;6.63;100.00
54262;BME280;40174;52.364;6.452;2023-01-04T01:11:37;101445.16;;;6.61;100.00
54262;BME280;40174;52.364;6.452;2023-01-04T01:14:04;101450.50;;;6.59;100.00
54262;BME280;40174;52.364;6.452;2023-01-04T01:16:31;101437.53;;;6.56;100.00
54262;BME280;40174;52.364;6.452;2023-01-04T01:18:59;101439.13;;;6.59;100.00
54262;BME280;40174;52.364;6.452;2023-01-04T01:21:26;101427.63;;;6.61;100.00
54262;BME280;40174;52.364;6.452;2023-01-04T01:23:54;101425.91;;;6.60;100.00
54262;BME280;40174;52.364;6.452;2023-01-04T01:26:22;101426.63;;;6.64;100.00
54262;BME280;40174;52.364;6.452;2023-01-04T01:28:50;101414.56;;;6.60;100.00
54262;BME280;40174;52.364;6.452;2023-01-04T01:31:18;101401.38;;;6.61;100.00
54262;BME280;40174;52.364;6.452;2023-01-04T01:33:47;101397.78;;;6.62;100.00
54262;BME280;40174;52.364;6.452;2023-01-04T01:36:17;101394.06;;;6.66;100.00
54262;BME280;40174;52.364;6.452;2023-01-04T01:38:44;101402.72;;;6.69;100.00
54262;BME280;40174;52.364;6.452;2023-01-04T01:41:20;101389.16;;;6.76;100.00
54262;BME280;40174;52.364;6.452;2023-01-04T01:43:53;101391.13;;;6.73;100.00
54262;BME280;40174;52.364;6.452;2023-01-04T01:46:24;101384.34;;;6.69;100.00
54262;BME280;40174;52.364;6.452;2023-01-04T01:48:53;101385.75;;;6.74;100.00
54262;BME280;40174;52.364;6.452;2023-01-04T01:51:23;101367.47;;;6.73;100.00
54262;BME280;40174;52.364;6.452;2023-01-04T01:53:53;101360.19;;;6.78;100.00
54262;BME280;40174;52.364;6.452;2023-01-04T01:56:25;101357.47;;;6.79;100.00
54262;BME280;40174;52.364;6.452;2023-01-04T01:58:53;101351.34;;;6.79;100.00
54262;BME280;40174;52.364;6.452;2023-01-04T02:01:21;101336.19;;;6.84;100.00
54262;BME280;40174;52.364;6.452;2023-01-04T02:03:47;101347.81;;;6.80;100.00
54262;BME280;40174;52.364;6.452;2023-01-04T02:06:17;101339.47;;;6.87;100.00
54262;BME280;40174;52.364;6.452;2023-01-04T02:08:47;101329.03;;;6.86;100.00
54262;BME280;40174;52.364;6.452;2023-01-04T02:11:14;101329.72;;;6.90;100.00
54262;BME280;40174;52.364;6.452;2023-01-04T02:13:42;101354.31;;;6.89;100.00
54262;BME280;40174;52.364;6.452;2023-01-04T02:16:45;101325.16;;;6.93;100.00
54262;BME280;40174;52.364;6.452;2023-01-04T02:19:33;101313.69;;;6.94;100.00
54262;BME280;40174;52.364;6.452;2023-01-04T02:22:17;101315.47;;;6.94;100.00
54262;BME280;40174;52.364;6.452;2023-01-04T02:25:03;101309.28;;;6.95;100.00
54262;BME280;40174;52.364;6.452;2023-01-04T02:27:43;101318.78;;;6.97;100.00
54262;BME280;40174;52.364;6.452;2023-01-04T02:33:25;101296.28;;;7.07;100.00
54262;BME280;40174;52.364;6.452;2023-01-04T02:35:58;101279.66;;;7.07;100.00
54262;BME280;40174;52.364;6.452;2023-01-04T02:38:38;101278.56;;;7.11;100.00
54262;BME280;40174;52.364;6.452;2023-01-04T02:41:15;101261.91;;;7.11;100.00
54262;BME280;40174;52.364;6.452;2023-01-04T02:43:47;101272.28;;;7.14;100.00
54262;BME280;40174;52.364;6.452;2023-01-04T02:46:35;101279.69;;;7.21;100.00
54262;BME280;40174;52.364;6.452;2023-01-04T02:49:06;101261.41;;;7.20;100.00
54262;BME280;40174;52.364;6.452;2023-01-04T02:51:51;101262.88;;;7.24;100.00
54262;BME280;40174;52.364;6.452;2023-01-04T02:54:20;101254.09;;;7.25;100.00
54262;BME280;40174;52.364;6.452;2023-01-04T02:57:03;101250.06;;;7.34;100.00
54262;BME280;40174;52.364;6.452;2023-01-04T03:00:03;101239.63;;;7.32;100.00
54262;BME280;40174;52.364;6.452;2023-01-04T03:02:51;101248.94;;;7.38;100.00
54262;BME280;40174;52.364;6.452;2023-01-04T03:05:45;101243.28;;;7.44;100.00
54262;BME280;40174;52.364;6.452;2023-01-04T03:08:32;101239.63;;;7.46;100.00
54262;BME280;40174;52.364;6.452;2023-01-04T03:11:02;101236.00;;;7.49;100.00
54262;BME280;40174;52.364;6.452;2023-01-04T03:13:34;101252.59;;;7.49;100.00
54262;BME280;40174;52.364;6.452;2023-01-04T03:16:06;101213.06;;;7.51;100.00
54262;BME280;40174;52.364;6.452;2023-01-04T03:18:37;101223.09;;;7.59;100.00
54262;BME280;40174;52.364;6.452;2023-01-04T03:21:09;101215.41;;;7.56;100.00
54262;BME280;40174;52.364;6.452;2023-01-04T03:23:38;101211.00;;;7.56;100.00
54262;BME280;40174;52.364;6.452;2023-01-04T03:26:23;101199.44;;;7.59;100.00
54262;BME280;40174;52.364;6.452;2023-01-04T03:29:12;101208.72;;;7.64;100.00
54262;BME280;40174;52.364;6.452;2023-01-04T03:32:03;101200.81;;;7.64;100.00
54262;BME280;40174;52.364;6.452;2023-01-04T03:34:50;101196.16;;;7.69;100.00
54262;BME280;40174;52.364;6.452;2023-01-04T03:37:41;101190.41;;;7.63;100.00
54262;BME280;40174;52.364;6.452;2023-01-04T03:40:19;101217.28;;;7.68;100.00
54262;BME280;40174;52.364;6.452;2023-01-04T03:43:08;101188.72;;;7.76;100.00
54262;BME280;40174;52.364;6.452;2023-01-04T03:45:55;101190.00;;;7.83;100.00
54262;BME280;40174;52.364;6.452;2023-01-04T03:48:45;101187.66;;;7.79;100.00
54262;BME280;40174;52.364;6.452;2023-01-04T03:51:15;101193.19;;;7.88;100.00
54262;BME280;40174;52.364;6.452;2023-01-04T03:53:50;101178.97;;;7.91;100.00
54262;BME280;40174;52.364;6.452;2023-01-04T03:56:21;101189.50;;;7.91;100.00
54262;BME280;40174;52.364;6.452;2023-01-04T03:58:49;101205.50;;;7.88;100.00
54262;BME280;40174;52.364;6.452;2023-01-04T04:01:17;101196.94;;;7.84;100.00
54262;BME280;40174;52.364;6.452;2023-01-04T04:03:44;101198.56;;;7.87;100.00
54262;BME280;40174;52.364;6.452;2023-01-04T04:06:28;101196.66;;;7.89;100.00
54262;BME280;40174;52.364;6.452;2023-01-04T04:09:14;101201.75;;;7.92;100.00
54262;BME280;40174;52.364;6.452;2023-01-04T04:11:40;101192.25;;;7.89;100.00
54262;BME280;40174;52.364;6.452;2023-01-04T04:14:07;101199.13;;;7.92;100.00
54262;BME280;40174;52.364;6.452;2023-01-04T04:16:34;101189.22;;;7.96;100.00
54262;BME280;40174;52.364;6.452;2023-01-04T04:19:00;101186.00;;;8.05;100.00
54262;BME280;40174;52.364;6.452;2023-01-04T04:21:27;101167.69;;;8.03;100.00
54262;BME280;40174;52.364;6.452;2023-01-04T04:23:54;101177.25;;;8.04;100.00
54262;BME280;40174;52.364;6.452;2023-01-04T04:26:22;101159.78;;;8.03;100.00
54262;BME280;40174;52.364;6.452;2023-01-04T04:28:49;101158.75;;;8.06;100.00
54262;BME280;40174;52.364;6.452;2023-01-04T04:31:16;101163.78;;;8.09;100.00
54262;BME280;40174;52.364;6.452;2023-01-04T04:33:42;101160.88;;;8.13;100.00
54262;BME280;40174;52.364;6.452;2023-01-04T04:36:09;101160.88;;;8.13;100.00
54262;BME280;40174;52.364;6.452;2023-01-04T04:38:35;101173.19;;;8.13;100.00
54262;BME280;40174;52.364;6.452;2023-01-04T04:41:06;101141.59;;;8.13;100.00
54262;BME280;40174;52.364;6.452;2023-01-04T04:43:53;101140.47;;;8.17;100.00
54262;BME280;40174;52.364;6.452;2023-01-04T04:46:20;101147.63;;;8.15;100.00
54262;BME280;40174;52.364;6.452;2023-01-04T04:48:47;101147.69;;;8.13;100.00
54262;BME280;40174;52.364;6.452;2023-01-04T04:51:13;101141.41;;;8.16;100.00
54262;BME280;40174;52.364;6.452;2023-01-04T04:53:40;101146.09;;;8.25;100.00
54262;BME280;40174;52.364;6.452;2023-01-04T04:56:07;101137.75;;;8.31;100.00
54262;BME280;40174;52.364;6.452;2023-01-04T04:58:34;101141.56;;;8.27;100.00
54262;BME280;40174;52.364;6.452;2023-01-04T05:01:03;101139.75;;;8.28;100.00
54262;BME280;40174;52.364;6.452;2023-01-04T05:03:30;101132.50;;;8.31;100.00
54262;BME280;40174;52.364;6.452;2023-01-04T05:05:56;101129.75;;;8.33;100.00
54262;BME280;40174;52.364;6.452;2023-01-04T05:08:23;101121.88;;;8.33;100.00
54262;BME280;40174;52.364;6.452;2023-01-04T05:10:50;101114.72;;;8.35;100.00
54262;BME280;40174;52.364;6.452;2023-01-04T05:13:16;101116.19;;;8.39;100.00
54262;BME280;40174;52.364;6.452;2023-01-04T05:15:44;101109.06;;;8.41;100.00
54262;BME280;40174;52.364;6.452;2023-01-04T05:18:14;101100.22;;;8.42;100.00
54262;BME280;40174;52.364;6.452;2023-01-04T05:20:41;101106.31;;;8.43;100.00
54262;BME280;40174;52.364;6.452;2023-01-04T05:23:09;101106.00;;;8.47;100.00
54262;BME280;40174;52.364;6.452;2023-01-04T05:25:37;101109.06;;;8.54;100.00
54262;BME280;40174;52.364;6.452;2023-01-04T05:28:04;101105.41;;;8.57;100.00
54262;BME280;40174;52.364;6.452;2023-01-04T05:30:31;101097.19;;;8.61;100.00
54262;BME280;40174;52.364;6.452;2023-01-04T05:33:16;101092.94;;;8.59;100.00
54262;BME280;40174;52.364;6.452;2023-01-04T05:35:43;101101.59;;;8.61;100.00
54262;BME280;40174;52.364;6.452;2023-01-04T05:38:10;101092.75;;;8.62;100.00
54262;BME280;40174;52.364;6.452;2023-01-04T05:40:37;101099.72;;;8.63;100.00
54262;BME280;40174;52.364;6.452;2023-01-04T05:43:03;101090.75;;;8.65;100.00
54262;BME280;40174;52.364;6.452;2023-01-04T05:45:30;101079.78;;;8.71;100.00
54262;BME280;40174;52.364;6.452;2023-01-04T05:47:56;101074.75;;;8.68;100.00
54262;BME280;40174;52.364;6.452;2023-01-04T05:50:24;101086.13;;;8.69;100.00
54262;BME280;40174;52.364;6.452;2023-01-04T05:52:51;101070.09;;;8.72;100.00
54262;BME280;40174;52.364;6.452;2023-01-04T05:55:18;101079.06;;;8.69;100.00
54262;BME280;40174;52.364;6.452;2023-01-04T05:57:45;101059.53;;;8.72;100.00
54262;BME280;40174;52.364;6.452;2023-01-04T06:00:12;101056.06;;;8.71;100.00
54262;BME280;40174;52.364;6.452;2023-01-04T06:02:40;101048.91;;;8.73;100.00
54262;BME280;40174;52.364;6.452;2023-01-04T06:05:08;101046.50;;;8.70;100.00
54262;BME280;40174;52.364;6.452;2023-01-04T06:07:37;101036.88;;;8.69;100.00
54262;BME280;40174;52.364;6.452;2023-01-04T06:10:05;101038.69;;;8.69;100.00
54262;BME280;40174;52.364;6.452;2023-01-04T06:12:31;101036.56;;;8.74;100.00
54262;BME280;40174;52.364;6.452;2023-01-04T06:14:58;101032.03;;;8.76;100.00
54262;BME280;40174;52.364;6.452;2023-01-04T06:17:25;101037.22;;;8.78;100.00
54262;BME280;40174;52.364;6.452;2023-01-04T06:19:51;101026.13;;;8.85;100.00
54262;BME280;40174;52.364;6.452;2023-01-04T06:22:18;101033.41;;;8.82;100.00
54262;BME280;40174;52.364;6.452;2023-01-04T06:24:46;101026.25;;;8.84;100.00
54262;BME280;40174;52.364;6.452;2023-01-04T06:27:13;101028.03;;;8.83;100.00
54262;BME280;40174;52.364;6.452;2023-01-04T06:29:39;101038.56;;;8.83;100.00
54262;BME280;40174;52.364;6.452;2023-01-04T06:32:06;101034.03;;;8.85;100.00
54262;BME280;40174;52.364;6.452;2023-01-04T06:34:33;101033.09;;;8.86;100.00
54262;BME280;40174;52.364;6.452;2023-01-04T06:36:59;101032.78;;;8.91;100.00
54262;BME280;40174;52.364;6.452;2023-01-04T06:39:26;101032.03;;;8.89;100.00
54262;BME280;40174;52.364;6.452;2023-01-04T06:41:54;101006.31;;;8.92;100.00
54262;BME280;40174;52.364;6.452;2023-01-04T06:44:21;100964.97;;;8.93;100.00
54262;BME280;40174;52.364;6.452;2023-01-04T06:46:47;100993.13;;;8.92;100.00
54262;BME280;40174;52.364;6.452;2023-01-04T06:49:14;101004.50;;;8.93;100.00
54262;BME280;40174;52.364;6.452;2023-01-04T06:51:40;101009.88;;;8.91;100.00
54262;BME280;40174;52.364;6.452;2023-01-04T06:54:08;101026.13;;;8.98;100.00
54262;BME280;40174;52.364;6.452;2023-01-04T06:56:37;101012.00;;;8.99;100.00
54262;BME280;40174;52.364;6.452;2023-01-04T06:59:05;101013.78;;;8.99;100.00
54262;BME280;40174;52.364;6.452;2023-01-04T07:01:34;100998.69;;;9.01;100.00
54262;BME280;40174;52.364;6.452;2023-01-04T07:04:00;101012.84;;;9.00;100.00
54262;BME280;40174;52.364;6.452;2023-01-04T07:06:27;101015.34;;;9.01;100.00
54262;BME280;40174;52.364;6.452;2023-01-04T07:08:54;101012.50;;;9.04;100.00
54262;BME280;40174;52.364;6.452;2023-01-04T07:11:21;101005.53;;;9.03;100.00
54262;BME280;40174;52.364;6.452;2023-01-04T07:13:47;101014.31;;;9.04;100.00
54262;BME280;40174;52.364;6.452;2023-01-04T07:16:15;100994.56;;;9.09;100.00
54262;BME280;40174;52.364;6.452;2023-01-04T07:18:42;101006.81;;;9.10;100.00
54262;BME280;40174;52.364;6.452;2023-01-04T07:21:08;101006.34;;;9.16;100.00
54262;BME280;40174;52.364;6.452;2023-01-04T07:23:35;101004.56;;;9.17;100.00
54262;BME280;40174;52.364;6.452;2023-01-04T07:26:02;100999.06;;;9.20;100.00
54262;BME280;40174;52.364;6.452;2023-01-04T07:28:28;101002.34;;;9.24;100.00
54262;BME280;40174;52.364;6.452;2023-01-04T07:31:12;100998.16;;;9.32;100.00
54262;BME280;40174;52.364;6.452;2023-01-04T07:33:40;101001.88;;;9.30;100.00
54262;BME280;40174;52.364;6.452;2023-01-04T07:36:07;100982.25;;;9.34;100.00
54262;BME280;40174;52.364;6.452;2023-01-04T07:38:34;100995.94;;;9.39;100.00
54262;BME280;40174;52.364;6.452;2023-01-04T07:41:01;100980.00;;;9.41;100.00
54262;BME280;40174;52.364;6.452;2023-01-04T07:43:28;100984.22;;;9.43;100.00
54262;BME280;40174;52.364;6.452;2023-01-04T07:45:55;100988.88;;;9.40;100.00
54262;BME280;40174;52.364;6.452;2023-01-04T07:48:22;100980.97;;;9.40;100.00
54262;BME280;40174;52.364;6.452;2023-01-04T07:50:50;100978.72;;;9.46;100.00
54262;BME280;40174;52.364;6.452;2023-01-04T07:53:16;100980.22;;;9.38;100.00
54262;BME280;40174;52.364;6.452;2023-01-04T07:55:43;100969.34;;;9.42;100.00
54262;BME280;40174;52.364;6.452;2023-01-04T07:58:10;100973.78;;;9.42;100.00
54262;BME280;40174;52.364;6.452;2023-01-04T08:00:37;100982.41;;;9.44;100.00
54262;BME280;40174;52.364;6.452;2023-01-04T08:03:03;100978.09;;;9.43;100.00
54262;BME280;40174;52.364;6.452;2023-01-04T08:05:31;100982.41;;;9.44;100.00
54262;BME280;40174;52.364;6.452;2023-01-04T08:07:59;100992.63;;;9.48;100.00
54262;BME280;40174;52.364;6.452;2023-01-04T08:10:26;100970.91;;;9.45;100.00
54262;BME280;40174;52.364;6.452;2023-01-04T08:12:53;100980.16;;;9.50;100.00
54262;BME280;40174;52.364;6.452;2023-01-04T08:15:20;100987.34;;;9.48;100.00
54262;BME280;40174;52.364;6.452;2023-01-04T08:17:46;100988.06;;;9.50;100.00
54262;BME280;40174;52.364;6.452;2023-01-04T08:20:13;100980.69;;;9.55;100.00
54262;BME280;40174;52.364;6.452;2023-01-04T08:22:40;100995.09;;;9.63;100.00
54262;BME280;40174;52.364;6.452;2023-01-04T08:25:08;100986.47;;;9.61;100.00
54262;BME280;40174;52.364;6.452;2023-01-04T08:27:35;100981.47;;;9.69;100.00
54262;BME280;40174;52.364;6.452;2023-01-04T08:30:02;100988.66;;;9.67;100.00
54262;BME280;40174;52.364;6.452;2023-01-04T08:32:29;100984.31;;;9.66;100.00
54262;BME280;40174;52.364;6.452;2023-01-04T08:34:55;100978.09;;;9.67;100.00
54262;BME280;40174;52.364;6.452;2023-01-04T08:37:22;100985.78;;;9.70;100.00
54262;BME280;40174;52.364;6.452;2023-01-04T08:39:48;100986.50;;;9.72;100.00
54262;BME280;40174;52.364;6.452;2023-01-04T08:42:16;100972.56;;;9.70;100.00
54262;BME280;40174;52.364;6.452;2023-01-04T08:44:43;100971.84;;;9.68;100.00
54262;BME280;40174;52.364;6.452;2023-01-04T08:47:09;100975.22;;;9.70;100.00
54262;BME280;40174;52.364;6.452;2023-01-04T08:49:36;100978.59;;;9.72;100.00
54262;BME280;40174;52.364;6.452;2023-01-04T08:52:03;100973.94;;;9.75;100.00
54262;BME280;40174;52.364;6.452;2023-01-04T08:54:30;100973.19;;;9.73;100.00
54262;BME280;40174;52.364;6.452;2023-01-04T08:56:56;100960.22;;;9.70;100.00
54262;BME280;40174;52.364;6.452;2023-01-04T08:59:24;100962.03;;;9.70;100.00
54262;BME280;40174;52.364;6.452;2023-01-04T09:01:51;100956.50;;;9.73;100.00
54262;BME280;40174;52.364;6.452;2023-01-04T09:04:17;100959.38;;;9.70;100.00
54262;BME280;40174;52.364;6.452;2023-01-04T09:06:44;100954.34;;;9.67;100.00
54262;BME280;40174;52.364;6.452;2023-01-04T09:09:10;100949.06;;;9.67;100.00
54262;BME280;40174;52.364;6.452;2023-01-04T09:11:38;100954.94;;;9.70;100.00
54262;BME280;40174;52.364;6.452;2023-01-04T09:14:05;100957.38;;;9.73;100.00
54262;BME280;40174;52.364;6.452;2023-01-04T09:16:35;100957.97;;;9.77;100.00
54262;BME280;40174;52.364;6.452;2023-01-04T09:19:02;100957.13;;;9.76;100.00
54262;BME280;40174;52.364;6.452;2023-01-04T09:21:29;100961.47;;;9.77;100.00
54262;BME280;40174;52.364;6.452;2023-01-04T09:23:56;100967.22;;;9.83;100.00
54262;BME280;40174;52.364;6.452;2023-01-04T09:26:23;100961.72;;;9.86;100.00
54262;BME280;40174;52.364;6.452;2023-01-04T09:28:52;100974.81;;;9.87;100.00
54262;BME280;40174;52.364;6.452;2023-01-04T09:31:20;100983.56;;;9.88;100.00
54262;BME280;40174;52.364;6.452;2023-01-04T09:33:49;100986.19;;;9.88;100.00
54262;BME280;40174;52.364;6.452;2023-01-04T09:36:16;100975.53;;;9.89;100.00
54262;BME280;40174;52.364;6.452;2023-01-04T09:38:43;100977.22;;;9.90;100.00
54262;BME280;40174;52.364;6.452;2023-01-04T09:41:19;100981.78;;;9.99;100.00
54262;BME280;40174;52.364;6.452;2023-01-04T09:43:49;100974.13;;;9.96;100.00
54262;BME280;40174;52.364;6.452;2023-01-04T09:46:23;100973.03;;;9.99;100.00
54262;BME280;40174;52.364;6.452;2023-01-04T09:48:55;100976.50;;;9.99;100.00
54262;BME280;40174;52.364;6.452;2023-01-04T09:51:32;100984.56;;;9.98;100.00
54262;BME280;40174;52.364;6.452;2023-01-04T09:54:04;100982.31;;;10.05;100.00
54262;BME280;40174;52.364;6.452;2023-01-04T09:56:35;100984.81;;;10.06;100.00
54262;BME280;40174;52.364;6.452;2023-01-04T09:59:06;100982.16;;;10.06;100.00
54262;BME280;40174;52.364;6.452;2023-01-04T10:01:40;100979.41;;;10.08;100.00
54262;BME280;40174;52.364;6.452;2023-01-04T10:04:16;100985.91;;;10.15;100.00
54262;BME280;40174;52.364;6.452;2023-01-04T10:06:44;100983.41;;;10.13;100.00
54262;BME280;40174;52.364;6.452;2023-01-04T10:09:13;100983.16;;;10.16;100.00
54262;BME280;40174;52.364;6.452;2023-01-04T10:12:00;100978.00;;;10.15;100.00
54262;BME280;40174;52.364;6.452;2023-01-04T10:14:48;100975.72;;;10.22;100.00
54262;BME280;40174;52.364;6.452;2023-01-04T10:17:33;100976.69;;;10.20;100.00
54262;BME280;40174;52.364;6.452;2023-01-04T10:20:26;100976.69;;;10.20;100.00
54262;BME280;40174;52.364;6.452;2023-01-04T10:22:59;100972.25;;;10.21;100.00
54262;BME280;40174;52.364;6.452;2023-01-04T10:25:37;100988.00;;;10.23;100.00
54262;BME280;40174;52.364;6.452;2023-01-04T10:28:14;100979.81;;;10.26;100.00
54262;BME280;40174;52.364;6.452;2023-01-04T10:30:49;100964.69;;;10.28;100.00
54262;BME280;40174;52.364;6.452;2023-01-04T10:33:23;100969.03;;;10.29;100.00
54262;BME280;40174;52.364;6.452;2023-01-04T10:35:54;100974.22;;;10.30;100.00
54262;BME280;40174;52.364;6.452;2023-01-04T10:38:23;100972.31;;;10.32;100.00
54262;BME280;40174;52.364;6.452;2023-01-04T10:40:51;100970.50;;;10.33;100.00
54262;BME280;40174;52.364;6.452;2023-01-04T10:43:27;100986.25;;;10.34;100.00
54262;BME280;40174;52.364;6.452;2023-01-04T10:46:05;100965.81;;;10.36;100.00
54262;BME280;40174;52.364;6.452;2023-01-04T10:48:35;100970.97;;;10.38;100.00
54262;BME280;40174;52.364;6.452;2023-01-04T10:51:06;100968.84;;;10.43;100.00
54262;BME280;40174;52.364;6.452;2023-01-04T10:53:36;100965.47;;;10.41;100.00
54262;BME280;40174;52.364;6.452;2023-01-04T10:56:11;100956.47;;;10.44;100.00
54262;BME280;40174;52.364;6.452;2023-01-04T10:58:44;100957.44;;;10.43;100.00
54262;BME280;40174;52.364;6.452;2023-01-04T11:01:16;100951.91;;;10.46;100.00
54262;BME280;40174;52.364;6.452;2023-01-04T11:03:47;100961.63;;;10.45;100.00
54262;BME280;40174;52.364;6.452;2023-01-04T11:06:21;100965.09;;;10.46;100.00
54262;BME280;40174;52.364;6.452;2023-01-04T11:08:52;100957.81;;;10.49;100.00
54262;BME280;40174;52.364;6.452;2023-01-04T11:11:25;100956.72;;;10.52;100.00
54262;BME280;40174;52.364;6.452;2023-01-04T11:13:53;100953.34;;;10.50;100.00
54262;BME280;40174;52.364;6.452;2023-01-04T11:16:20;100948.78;;;10.52;100.00
54262;BME280;40174;52.364;6.452;2023-01-04T11:18:48;100946.00;;;10.53;100.00
54262;BME280;40174;52.364;6.452;2023-01-04T11:21:19;100946.72;;;10.55;100.00
54262;BME280;40174;52.364;6.452;2023-01-04T11:23:47;100934.47;;;10.54;100.00
54262;BME280;40174;52.364;6.452;2023-01-04T11:26:17;100938.69;;;10.57;100.00
54262;BME280;40174;52.364;6.452;2023-01-04T11:28:48;100927.28;;;10.56;100.00
54262;BME280;40174;52.364;6.452;2023-01-04T11:31:21;100926.09;;;10.60;100.00
54262;BME280;40174;52.364;6.452;2023-01-04T11:33:52;100915.63;;;10.59;100.00
54262;BME280;40174;52.364;6.452;2023-01-04T11:36:35;100925.47;;;10.57;100.00
54262;BME280;40174;52.364;6.452;2023-01-04T11:39:05;100915.84;;;10.56;100.00
54262;BME280;40174;52.364;6.452;2023-01-04T11:41:32;100925.34;;;10.58;100.00
54262;BME280;40174;52.364;6.452;2023-01-04T11:44:01;100935.06;;;10.58;100.00
54262;BME280;40174;52.364;6.452;2023-01-04T11:46:28;100925.22;;;10.60;100.00
54262;BME280;40174;52.364;6.452;2023-01-04T11:48:56;100906.84;;;10.58;100.00
54262;BME280;40174;52.364;6.452;2023-01-04T11:51:35;100913.44;;;10.64;100.00
54262;BME280;40174;52.364;6.452;2023-01-04T11:54:05;100905.97;;;10.69;100.00
54262;BME280;40174;52.364;6.452;2023-01-04T11:56:34;100907.78;;;10.69;100.00
54262;BME280;40174;52.364;6.452;2023-01-04T11:59:18;100897.47;;;10.66;100.00
54262;BME280;40174;52.364;6.452;2023-01-04T12:01:48;100891.09;;;10.68;100.00
54262;BME280;40174;52.364;6.452;2023-01-04T12:04:19;100877.28;;;10.65;100.00
54262;BME280;40174;52.364;6.452;2023-01-04T12:06:49;100885.56;;;10.71;100.00
54262;BME280;40174;52.364;6.452;2023-01-04T12:09:18;100876.78;;;10.71;100.00
54262;BME280;40174;52.364;6.452;2023-01-04T12:11:48;100886.28;;;10.73;100.00
54262;BME280;40174;52.364;6.452;2023-01-04T12:14:21;100872.22;;;10.73;100.00
54262;BME280;40174;52.364;6.452;2023-01-04T12:16:57;100874.03;;;10.72;100.00
54262;BME280;40174;52.364;6.452;2023-01-04T12:19:25;100879.44;;;10.71;100.00
54262;BME280;40174;52.364;6.452;2023-01-04T12:21:55;100884.47;;;10.74;100.00
54262;BME280;40174;52.364;6.452;2023-01-04T12:24:25;100882.06;;;10.71;100.00
54262;BME280;40174;52.364;6.452;2023-01-04T12:26:52;100878.50;;;10.72;100.00
54262;BME280;40174;52.364;6.452;2023-01-04T12:29:43;100871.84;;;10.77;100.00
54262;BME280;40174;52.364;6.452;2023-01-04T12:32:41;100876.19;;;10.78;100.00
54262;BME280;40174;52.364;6.452;2023-01-04T12:38:59;100862.25;;;10.76;100.00
54262;BME280;40174;52.364;6.452;2023-01-04T12:45:15;100868.25;;;10.78;100.00
54262;BME280;40174;52.364;6.452;2023-01-04T12:47:44;100870.41;;;10.73;100.00
54262;BME280;40174;52.364;6.452;2023-01-04T12:50:29;100869.47;;;10.74;100.00
54262;BME280;40174;52.364;6.452;2023-01-04T12:53:03;100854.69;;;10.72;100.00
54262;BME280;40174;52.364;6.452;2023-01-04T13:01:24;100865.84;;;10.75;100.00
54262;BME280;40174;52.364;6.452;2023-01-04T13:03:55;100877.88;;;10.79;100.00
54262;BME280;40174;52.364;6.452;2023-01-04T13:06:25;100872.47;;;10.81;100.00
54262;BME280;40174;52.364;6.452;2023-01-04T13:08:53;100869.66;;;10.82;100.00
54262;BME280;40174;52.364;6.452;2023-01-04T13:14:20;100877.88;;;10.79;100.00
54262;BME280;40174;52.364;6.452;2023-01-04T13:17:02;100888.31;;;10.81;100.00
54262;BME280;40174;52.364;6.452;2023-01-04T13:19:37;100886.63;;;10.80;100.00
54262;BME280;40174;52.364;6.452;2023-01-04T13:22:09;100882.31;;;10.79;100.00
54262;BME280;40174;52.364;6.452;2023-01-04T13:24:42;100873.56;;;10.78;100.00